BLG06 LFBO-EHAM
Flight info
| Callsign | BLG06 |
|---|---|
| Flight time | N/A |
| Altitude | 34000 |
| Route | FISTO DCT PERIG DCT ADABI DCT BOKNO UN858 VANAD UN874 BAMES UT191 PODEM UN873 BAZOS DCT LUMIL DCT BELOB UY873 DENUT |
| Aircraft | A332/H-SDE3GHIJ2J3J5M1RVWXY/LB2D1 |
Departure
| Time | 2026-04-28 12:30 |
|---|---|
| Airport | Toulouse-Blagnac Airport (LFBO) |
Arrival
| Time | N/A |
|---|---|
| Airport | Amsterdam Airport Schiphol (EHAM) |
| Time | Latitude | Longitude | Altitude | Speed | Heading |
|---|---|---|---|---|---|
| 2026-04-28 12:15 | 43.62586 | 1.35886 | 498 ft | 0 kts | 321° |
| 2026-04-28 12:22 | 43.62582 | 1.35892 | 498 ft | 2 kts | 323° |
| 2026-04-28 12:22 | 43.62565 | 1.35907 | 508 ft | 3 kts | 334° |
| 2026-04-28 12:22 | 43.62547 | 1.35916 | 487 ft | 3 kts | 354° |
| 2026-04-28 12:23 | 43.62528 | 1.35915 | 487 ft | 3 kts | 24° |
| 2026-04-28 12:23 | 43.62515 | 1.35904 | 487 ft | 1 kts | 52° |
| 2026-04-28 12:23 | 43.62514 | 1.35902 | 487 ft | 0 kts | 53° |
| 2026-04-28 12:26 | 43.62535 | 1.35940 | 484 ft | 10 kts | 53° |
| 2026-04-28 12:26 | 43.62590 | 1.36045 | 489 ft | 17 kts | 53° |
| 2026-04-28 12:26 | 43.62606 | 1.36070 | 491 ft | 1 kts | 46° |
| 2026-04-28 12:26 | 43.62608 | 1.36073 | 492 ft | 0 kts | 46° |
| 2026-04-28 12:27 | 43.62647 | 1.36090 | 488 ft | 16 kts | 359° |
| 2026-04-28 12:27 | 43.62792 | 1.35967 | 490 ft | 28 kts | 323° |
| 2026-04-28 12:27 | 43.62949 | 1.35804 | 487 ft | 28 kts | 323° |
| 2026-04-28 12:28 | 43.63124 | 1.35622 | 499 ft | 38 kts | 323° |
| 2026-04-28 12:28 | 43.63370 | 1.35364 | 491 ft | 51 kts | 323° |
| 2026-04-28 12:28 | 43.63673 | 1.35048 | 499 ft | 55 kts | 323° |
| 2026-04-28 12:28 | 43.63964 | 1.34745 | 499 ft | 52 kts | 323° |
| 2026-04-28 12:29 | 43.64336 | 1.34498 | 499 ft | 12 kts | 48° |
| 2026-04-28 12:29 | 43.64372 | 1.34605 | 489 ft | 11 kts | 99° |
| 2026-04-28 12:29 | 43.64308 | 1.34702 | 490 ft | 20 kts | 141° |
| 2026-04-28 12:30 | 43.64019 | 1.35004 | 501 ft | 92 kts | 143° |
| 2026-04-28 12:30 | 43.63288 | 1.35756 | 531 ft | 166 kts | 138° |
| 2026-04-28 12:30 | 43.62246 | 1.36815 | 1090 ft | 201 kts | 140° |
| 2026-04-28 12:30 | 43.61156 | 1.37978 | 2268 ft | 191 kts | 140° |
| 2026-04-28 12:31 | 43.60103 | 1.39109 | 2994 ft | 203 kts | 140° |
| 2026-04-28 12:31 | 43.58911 | 1.40372 | 3307 ft | 229 kts | 140° |
| 2026-04-28 12:31 | 43.57572 | 1.41778 | 3563 ft | 253 kts | 140° |
| 2026-04-28 12:31 | 43.56148 | 1.43280 | 4230 ft | 261 kts | 142° |
| 2026-04-28 12:32 | 43.54502 | 1.44352 | 4961 ft | 267 kts | 171° |
| 2026-04-28 12:32 | 43.52673 | 1.44009 | 5745 ft | 271 kts | 205° |
| 2026-04-28 12:32 | 43.51249 | 1.42342 | 6592 ft | 272 kts | 234° |
| 2026-04-28 12:32 | 43.50531 | 1.39954 | 7443 ft | 272 kts | 260° |
| 2026-04-28 12:33 | 43.50657 | 1.37374 | 8344 ft | 274 kts | 286° |
| 2026-04-28 12:33 | 43.51644 | 1.35160 | 9127 ft | 282 kts | 314° |
| 2026-04-28 12:33 | 43.53315 | 1.33701 | 9904 ft | 289 kts | 332° |
| 2026-04-28 12:33 | 43.55224 | 1.32691 | 10391 ft | 304 kts | 343° |
| 2026-04-28 12:34 | 43.57385 | 1.32230 | 10667 ft | 324 kts | 352° |
| 2026-04-28 12:34 | 43.59674 | 1.31964 | 11124 ft | 334 kts | 353° |
| 2026-04-28 12:34 | 43.62011 | 1.31705 | 11751 ft | 339 kts | 353° |
| 2026-04-28 12:34 | 43.64370 | 1.31428 | 12400 ft | 342 kts | 352° |
| 2026-04-28 12:35 | 43.66753 | 1.31132 | 13038 ft | 345 kts | 352° |
| 2026-04-28 12:35 | 43.69161 | 1.30854 | 13685 ft | 349 kts | 353° |
| 2026-04-28 12:35 | 43.71561 | 1.30604 | 14259 ft | 353 kts | 353° |
| 2026-04-28 12:35 | 43.74022 | 1.30351 | 14862 ft | 357 kts | 353° |
| 2026-04-28 12:36 | 43.76511 | 1.30094 | 15423 ft | 360 kts | 353° |
| 2026-04-28 12:36 | 43.79021 | 1.29833 | 15960 ft | 364 kts | 353° |
| 2026-04-28 12:36 | 43.81558 | 1.29568 | 16501 ft | 367 kts | 353° |
| 2026-04-28 12:36 | 43.84118 | 1.29299 | 17040 ft | 371 kts | 353° |
| 2026-04-28 12:37 | 43.86703 | 1.29028 | 17569 ft | 374 kts | 353° |
| 2026-04-28 12:37 | 43.89309 | 1.28755 | 18109 ft | 377 kts | 353° |
| 2026-04-28 12:37 | 43.91903 | 1.28482 | 18568 ft | 380 kts | 353° |
| 2026-04-28 12:37 | 43.94552 | 1.28203 | 19020 ft | 383 kts | 353° |
| 2026-04-28 12:38 | 43.97217 | 1.27923 | 19482 ft | 386 kts | 352° |
| 2026-04-28 12:38 | 43.99901 | 1.27640 | 19921 ft | 388 kts | 352° |
| 2026-04-28 12:38 | 44.02603 | 1.27354 | 20356 ft | 391 kts | 352° |
| 2026-04-28 12:38 | 44.05319 | 1.27068 | 20836 ft | 392 kts | 352° |
| 2026-04-28 12:39 | 44.08044 | 1.26779 | 21290 ft | 394 kts | 352° |
| 2026-04-28 12:39 | 44.10783 | 1.26489 | 21697 ft | 396 kts | 352° |
| 2026-04-28 12:39 | 44.13539 | 1.26197 | 22107 ft | 398 kts | 352° |
| 2026-04-28 12:39 | 44.16311 | 1.25904 | 22511 ft | 401 kts | 352° |
| 2026-04-28 12:40 | 44.19062 | 1.25612 | 22908 ft | 403 kts | 352° |
| 2026-04-28 12:40 | 44.21863 | 1.25313 | 23297 ft | 405 kts | 352° |
| 2026-04-28 12:40 | 44.24675 | 1.25014 | 23705 ft | 406 kts | 352° |
| 2026-04-28 12:40 | 44.27495 | 1.24715 | 24047 ft | 407 kts | 352° |
| 2026-04-28 12:41 | 44.30327 | 1.24413 | 24355 ft | 409 kts | 352° |
| 2026-04-28 12:41 | 44.33163 | 1.24111 | 24745 ft | 408 kts | 352° |
| 2026-04-28 12:41 | 44.35991 | 1.23809 | 25133 ft | 407 kts | 352° |
| 2026-04-28 12:41 | 44.38817 | 1.23507 | 25506 ft | 407 kts | 352° |
| 2026-04-28 12:42 | 44.41598 | 1.23210 | 25875 ft | 407 kts | 351° |
| 2026-04-28 12:42 | 44.44417 | 1.22898 | 26233 ft | 406 kts | 350° |
| 2026-04-28 12:42 | 44.47192 | 1.22276 | 26587 ft | 402 kts | 343° |
| 2026-04-28 12:42 | 44.49907 | 1.21381 | 26947 ft | 400 kts | 341° |
| 2026-04-28 12:43 | 44.52590 | 1.20371 | 27308 ft | 399 kts | 339° |
| 2026-04-28 12:43 | 44.55255 | 1.19308 | 27665 ft | 398 kts | 339° |
| 2026-04-28 12:43 | 44.57913 | 1.18229 | 28023 ft | 397 kts | 339° |
| 2026-04-28 12:43 | 44.60566 | 1.17156 | 28385 ft | 397 kts | 339° |
| 2026-04-28 12:44 | 44.63185 | 1.16105 | 28747 ft | 396 kts | 338° |
| 2026-04-28 12:44 | 44.65836 | 1.15053 | 29104 ft | 396 kts | 338° |
| 2026-04-28 12:44 | 44.68481 | 1.14011 | 29484 ft | 395 kts | 338° |
| 2026-04-28 12:44 | 44.71127 | 1.12973 | 29853 ft | 395 kts | 338° |
| 2026-04-28 12:45 | 44.73769 | 1.11938 | 30215 ft | 394 kts | 338° |
| 2026-04-28 12:45 | 44.76404 | 1.10907 | 30546 ft | 393 kts | 338° |
| 2026-04-28 12:45 | 44.79036 | 1.09875 | 30829 ft | 393 kts | 338° |
| 2026-04-28 12:45 | 44.81666 | 1.08842 | 31153 ft | 392 kts | 338° |
| 2026-04-28 12:46 | 44.84290 | 1.07809 | 31489 ft | 391 kts | 338° |
| 2026-04-28 12:46 | 44.86910 | 1.06777 | 31757 ft | 391 kts | 338° |
| 2026-04-28 12:46 | 44.89495 | 1.05757 | 32000 ft | 391 kts | 338° |
| 2026-04-28 12:46 | 44.92111 | 1.04724 | 32237 ft | 391 kts | 338° |
| 2026-04-28 12:47 | 44.94730 | 1.03689 | 32487 ft | 391 kts | 338° |
| 2026-04-28 12:47 | 44.97346 | 1.02654 | 32717 ft | 390 kts | 337° |
| 2026-04-28 12:47 | 44.99960 | 1.01620 | 32977 ft | 390 kts | 337° |
| 2026-04-28 12:47 | 45.02569 | 1.00586 | 33224 ft | 389 kts | 337° |
| 2026-04-28 12:48 | 45.05177 | 0.99552 | 33424 ft | 389 kts | 337° |
| 2026-04-28 12:48 | 45.07784 | 0.98517 | 33647 ft | 389 kts | 337° |
| 2026-04-28 12:48 | 45.10350 | 0.97497 | 33868 ft | 388 kts | 337° |
| 2026-04-28 12:48 | 45.12972 | 0.96525 | 34006 ft | 392 kts | 339° |
| 2026-04-28 12:49 | 45.15653 | 0.95658 | 34006 ft | 398 kts | 340° |
| 2026-04-28 12:49 | 45.21159 | 0.94051 | 34010 ft | 410 kts | 341° |
| 2026-04-28 12:50 | 45.26813 | 0.92430 | 34017 ft | 419 kts | 341° |
| 2026-04-28 12:50 | 45.32536 | 0.90754 | 34011 ft | 421 kts | 341° |
| 2026-04-28 12:50 | 45.35362 | 0.89929 | 34016 ft | 409 kts | 341° |
| 2026-04-28 12:51 | 45.38123 | 0.89120 | 34031 ft | 403 kts | 341° |
| 2026-04-28 12:51 | 45.43591 | 0.87485 | 34004 ft | 401 kts | 340° |
| 2026-04-28 12:52 | 45.49058 | 0.85835 | 33995 ft | 402 kts | 340° |
| 2026-04-28 12:52 | 45.53606 | 0.84464 | 33992 ft | 402 kts | 340° |
| 2026-04-28 12:53 | 45.59970 | 0.82549 | 33998 ft | 402 kts | 340° |
| 2026-04-28 12:53 | 45.65454 | 0.80897 | 33992 ft | 403 kts | 340° |
| 2026-04-28 12:54 | 45.70016 | 0.79520 | 33991 ft | 403 kts | 340° |
| 2026-04-28 12:54 | 45.75501 | 0.77861 | 33996 ft | 403 kts | 340° |
| 2026-04-28 12:54 | 45.79120 | 0.76769 | 34272 ft | 399 kts | 340° |
| 2026-04-28 12:55 | 45.81817 | 0.75956 | 34576 ft | 394 kts | 340° |
| 2026-04-28 12:55 | 45.84487 | 0.75149 | 34829 ft | 391 kts | 340° |
| 2026-04-28 12:55 | 45.87148 | 0.74340 | 34972 ft | 391 kts | 340° |
| 2026-04-28 12:56 | 45.91580 | 0.72984 | 34989 ft | 392 kts | 340° |
| 2026-04-28 12:56 | 45.96915 | 0.71352 | 35032 ft | 392 kts | 340° |
| 2026-04-28 12:57 | 46.02258 | 0.69719 | 34997 ft | 393 kts | 340° |
| 2026-04-28 12:57 | 46.07606 | 0.68083 | 34992 ft | 394 kts | 340° |
| 2026-04-28 12:58 | 46.12957 | 0.66438 | 34998 ft | 397 kts | 340° |
| 2026-04-28 12:58 | 46.18369 | 0.64776 | 35015 ft | 398 kts | 340° |
| 2026-04-28 12:59 | 46.23788 | 0.63110 | 35001 ft | 398 kts | 340° |
| 2026-04-28 12:59 | 46.29208 | 0.61439 | 34998 ft | 398 kts | 340° |
| 2026-04-28 13:00 | 46.34627 | 0.59764 | 35006 ft | 398 kts | 340° |
| 2026-04-28 13:00 | 46.40009 | 0.58096 | 35004 ft | 398 kts | 340° |
| 2026-04-28 13:01 | 46.45423 | 0.56416 | 35014 ft | 398 kts | 340° |
| 2026-04-28 13:01 | 46.50837 | 0.54732 | 35014 ft | 398 kts | 340° |
| 2026-04-28 13:02 | 46.56362 | 0.53676 | 35015 ft | 410 kts | 355° |
| 2026-04-28 13:02 | 46.62038 | 0.54905 | 35010 ft | 418 kts | 5° |
| 2026-04-28 13:03 | 46.67730 | 0.56761 | 35009 ft | 420 kts | 7° |
| 2026-04-28 13:03 | 46.73408 | 0.58721 | 35018 ft | 419 kts | 7° |
| 2026-04-28 13:04 | 46.79091 | 0.60646 | 35014 ft | 419 kts | 6° |
| 2026-04-28 13:04 | 46.84735 | 0.62525 | 35027 ft | 419 kts | 6° |
| 2026-04-28 13:05 | 46.90421 | 0.64409 | 35013 ft | 419 kts | 6° |
| 2026-04-28 13:05 | 46.96103 | 0.66297 | 34796 ft | 418 kts | 6° |
| 2026-04-28 13:05 | 46.98938 | 0.67242 | 34575 ft | 417 kts | 6° |
| 2026-04-28 13:06 | 47.01763 | 0.68185 | 34338 ft | 416 kts | 6° |
| 2026-04-28 13:06 | 47.04591 | 0.68983 | 34111 ft | 410 kts | 358° |
| 2026-04-28 13:06 | 47.07423 | 0.69409 | 34031 ft | 409 kts | 357° |
| 2026-04-28 13:07 | 47.13063 | 0.70075 | 34029 ft | 409 kts | 356° |
| 2026-04-28 13:07 | 47.18742 | 0.70653 | 34063 ft | 409 kts | 356° |
| 2026-04-28 13:08 | 47.24424 | 0.71226 | 34043 ft | 409 kts | 356° |
| 2026-04-28 13:08 | 47.30106 | 0.71814 | 34047 ft | 409 kts | 356° |
| 2026-04-28 13:09 | 47.35748 | 0.72404 | 34048 ft | 409 kts | 356° |
| 2026-04-28 13:09 | 47.41429 | 0.73002 | 34052 ft | 409 kts | 357° |
| 2026-04-28 13:10 | 47.47105 | 0.73602 | 34048 ft | 409 kts | 358° |
| 2026-04-28 13:10 | 47.49900 | 0.74264 | 34045 ft | 416 kts | 9° |
| 2026-04-28 13:10 | 47.52696 | 0.75412 | 34046 ft | 418 kts | 11° |
| 2026-04-28 13:11 | 47.58251 | 0.78025 | 34044 ft | 420 kts | 13° |
| 2026-04-28 13:11 | 47.63789 | 0.80796 | 34048 ft | 419 kts | 14° |
| 2026-04-28 13:12 | 47.69312 | 0.83564 | 34050 ft | 419 kts | 14° |
| 2026-04-28 13:12 | 47.74804 | 0.86294 | 34054 ft | 420 kts | 13° |
| 2026-04-28 13:13 | 47.80348 | 0.89041 | 34087 ft | 420 kts | 14° |
| 2026-04-28 13:13 | 47.85887 | 0.91799 | 34052 ft | 419 kts | 14° |
| 2026-04-28 13:14 | 47.91412 | 0.94586 | 34053 ft | 419 kts | 14° |
| 2026-04-28 13:14 | 47.96936 | 0.97386 | 34055 ft | 419 kts | 14° |
| 2026-04-28 13:15 | 48.02405 | 1.00256 | 34064 ft | 420 kts | 17° |
| 2026-04-28 13:15 | 48.07840 | 1.03443 | 34048 ft | 419 kts | 19° |
| 2026-04-28 13:16 | 48.13244 | 1.06722 | 34053 ft | 419 kts | 19° |
| 2026-04-28 13:16 | 48.18643 | 1.10002 | 34069 ft | 419 kts | 19° |
| 2026-04-28 13:17 | 48.24009 | 1.13251 | 34070 ft | 418 kts | 20° |
| 2026-04-28 13:17 | 48.29372 | 1.16499 | 34063 ft | 414 kts | 20° |
| 2026-04-28 13:18 | 48.34707 | 1.19735 | 34066 ft | 413 kts | 20° |
| 2026-04-28 13:18 | 48.40040 | 1.22977 | 34068 ft | 414 kts | 20° |
| 2026-04-28 13:19 | 48.45373 | 1.26228 | 34076 ft | 413 kts | 20° |
| 2026-04-28 13:19 | 48.50649 | 1.29452 | 34073 ft | 411 kts | 20° |
| 2026-04-28 13:20 | 48.55963 | 1.32705 | 34074 ft | 414 kts | 20° |
| 2026-04-28 13:20 | 48.61305 | 1.35983 | 34077 ft | 415 kts | 20° |
| 2026-04-28 13:21 | 48.66657 | 1.39275 | 34081 ft | 415 kts | 21° |
| 2026-04-28 13:21 | 48.71948 | 1.42538 | 34077 ft | 413 kts | 21° |
| 2026-04-28 13:22 | 48.77260 | 1.45820 | 34081 ft | 412 kts | 21° |
| 2026-04-28 13:22 | 48.82570 | 1.49109 | 34087 ft | 412 kts | 21° |
| 2026-04-28 13:23 | 48.87881 | 1.52407 | 34085 ft | 412 kts | 21° |
| 2026-04-28 13:23 | 48.93152 | 1.55686 | 34091 ft | 412 kts | 21° |
| 2026-04-28 13:24 | 48.98461 | 1.58997 | 34093 ft | 412 kts | 21° |
| 2026-04-28 13:24 | 49.03766 | 1.62313 | 34090 ft | 412 kts | 21° |
| 2026-04-28 13:25 | 49.09073 | 1.65638 | 34104 ft | 412 kts | 22° |
| 2026-04-28 13:25 | 49.14355 | 1.68955 | 34096 ft | 410 kts | 22° |
| 2026-04-28 13:26 | 49.19588 | 1.72248 | 34097 ft | 409 kts | 22° |
| 2026-04-28 13:26 | 49.24854 | 1.75571 | 34104 ft | 409 kts | 22° |
| 2026-04-28 13:27 | 49.30119 | 1.78901 | 34103 ft | 410 kts | 22° |
| 2026-04-28 13:27 | 49.35405 | 1.82251 | 34102 ft | 412 kts | 22° |
| 2026-04-28 13:28 | 49.40698 | 1.85613 | 34103 ft | 412 kts | 22° |
| 2026-04-28 13:28 | 49.45954 | 1.88960 | 34105 ft | 412 kts | 22° |
| 2026-04-28 13:29 | 49.51185 | 1.92525 | 34112 ft | 411 kts | 31° |
| 2026-04-28 13:29 | 49.55914 | 1.97399 | 34105 ft | 407 kts | 37° |
| 2026-04-28 13:30 | 49.60482 | 2.02534 | 34103 ft | 406 kts | 38° |
| 2026-04-28 13:30 | 49.65016 | 2.07729 | 34110 ft | 406 kts | 38° |
| 2026-04-28 13:31 | 49.71799 | 2.15482 | 34118 ft | 406 kts | 38° |
| 2026-04-28 13:31 | 49.76337 | 2.20659 | 34110 ft | 404 kts | 38° |
| 2026-04-28 13:32 | 49.80856 | 2.25823 | 34116 ft | 403 kts | 38° |
| 2026-04-28 13:32 | 49.85373 | 2.30999 | 34118 ft | 404 kts | 38° |
| 2026-04-28 13:33 | 49.89866 | 2.36160 | 34114 ft | 405 kts | 38° |
| 2026-04-28 13:33 | 49.94392 | 2.41372 | 34122 ft | 405 kts | 38° |
| 2026-04-28 13:34 | 49.98906 | 2.46582 | 34126 ft | 403 kts | 38° |
| 2026-04-28 13:34 | 50.03399 | 2.51779 | 34128 ft | 402 kts | 38° |
| 2026-04-28 13:35 | 50.07886 | 2.56983 | 34128 ft | 402 kts | 39° |
| 2026-04-28 13:35 | 50.12342 | 2.62164 | 33997 ft | 402 kts | 38° |
| 2026-04-28 13:36 | 50.14584 | 2.64775 | 33724 ft | 402 kts | 39° |
| 2026-04-28 13:36 | 50.16827 | 2.67392 | 33419 ft | 403 kts | 39° |
| 2026-04-28 13:36 | 50.19071 | 2.70011 | 32947 ft | 402 kts | 39° |
| 2026-04-28 13:36 | 50.21307 | 2.72624 | 32583 ft | 401 kts | 39° |
| 2026-04-28 13:37 | 50.23535 | 2.75231 | 32224 ft | 400 kts | 39° |
| 2026-04-28 13:37 | 50.25765 | 2.77844 | 31840 ft | 401 kts | 38° |
| 2026-04-28 13:37 | 50.28000 | 2.80467 | 31485 ft | 402 kts | 38° |
| 2026-04-28 13:37 | 50.30241 | 2.83099 | 31149 ft | 403 kts | 38° |
| 2026-04-28 13:38 | 50.32484 | 2.85737 | 30794 ft | 403 kts | 38° |
| 2026-04-28 13:38 | 50.34698 | 2.88344 | 30462 ft | 404 kts | 38° |
| 2026-04-28 13:38 | 50.36946 | 2.90994 | 30113 ft | 405 kts | 38° |
| 2026-04-28 13:38 | 50.39199 | 2.93651 | 29696 ft | 405 kts | 39° |
| 2026-04-28 13:39 | 50.41472 | 2.96247 | 29295 ft | 404 kts | 34° |
| 2026-04-28 13:39 | 50.43891 | 2.98487 | 28911 ft | 404 kts | 31° |
| 2026-04-28 13:39 | 50.46340 | 3.00639 | 28526 ft | 404 kts | 30° |
| 2026-04-28 13:39 | 50.48812 | 3.02748 | 28140 ft | 405 kts | 30° |